Time;durP1;ratioP1;P1;durP2;ratioP2;P2;SDS_P1;SDS_P2;PMS_P1;PMS_P2;Temp;Humidity;BMP_temperature;BMP_pressure;BME280_temperature;BME280_humidity;BME280_pressure;Samples;Min_cycle;Max_cycle;Signal;HPM_P1;HPM_P2
2023/01/29 00:01:06;;;;;;;40.63;27.17;;;;;;;0.89;66.41;101225.13;5046136;28;20017;-81
2023/01/29 00:03:32;;;;;;;47.88;28.55;;;;;;;0.78;66.54;101213.69;5045592;28;20261;-82
2023/01/29 00:05:58;;;;;;;45.65;28.50;;;;;;;0.86;66.94;101218.22;5045298;28;20515;-83
2023/01/29 00:08:23;;;;;;;50.13;26.23;;;;;;;0.85;66.47;101210.34;5044891;28;20040;-83
2023/01/29 00:10:48;;;;;;;44.58;28.70;;;;;;;0.93;65.99;101205.84;5027334;28;20064;-83
2023/01/29 00:13:14;;;;;;;46.57;27.13;;;;;;;0.91;66.46;101207.84;5044932;28;20068;-81
2023/01/29 00:15:39;;;;;;;45.27;26.97;;;;;;;0.92;66.02;101204.16;5045525;28;20258;-82
2023/01/29 00:18:04;;;;;;;40.53;23.20;;;;;;;0.96;66.28;101201.13;5044719;28;20274;-83
2023/01/29 00:20:30;;;;;;;43.00;24.27;;;;;;;0.96;65.76;101199.28;5045048;28;20887;-83
2023/01/29 00:22:56;;;;;;;40.75;25.65;;;;;;;0.96;65.05;101193.91;5045089;28;20616;-82
2023/01/29 00:25:21;;;;;;;51.38;31.13;;;;;;;0.89;65.76;101190.22;5044969;28;20039;-82
2023/01/29 00:27:46;;;;;;;48.72;25.73;;;;;;;0.92;66.02;101188.03;5044823;28;20142;-82
2023/01/29 00:30:12;;;;;;;38.22;24.58;;;;;;;0.88;65.92;101185.84;5045212;28;20055;-82
2023/01/29 00:32:39;;;;;;;40.40;25.05;;;;;;;0.96;65.69;101182.31;5044841;28;20044;-82
2023/01/29 00:35:05;;;;;;;41.47;25.38;;;;;;;1.03;65.42;101177.97;5044582;28;20394;-82
2023/01/29 00:37:31;;;;;;;49.50;27.05;;;;;;;1.08;65.23;101180.19;5043643;28;20112;-82
2023/01/29 00:39:56;;;;;;;47.47;26.98;;;;;;;1.08;65.42;101189.06;5045004;28;20531;-82
2023/01/29 00:45:06;;;;;;;42.88;26.25;;;;;;;1.08;64.70;101185.53;5044724;28;20098;-82
2023/01/29 00:47:35;;;;;;;45.95;28.63;;;;;;;1.01;65.27;101196.97;5043866;28;20044;-83
2023/01/29 00:50:02;;;;;;;41.42;26.70;;;;;;;1.05;64.90;101192.09;5044007;28;20037;-82
2023/01/29 00:52:28;;;;;;;43.92;28.52;;;;;;;1.07;65.05;101182.00;5026426;28;20029;-83
2023/01/29 00:54:56;;;;;;;46.28;27.88;;;;;;;1.04;65.18;101185.88;5044325;28;20033;-83
2023/01/29 00:57:23;;;;;;;44.33;27.30;;;;;;;0.90;65.14;101179.31;5043523;28;20183;-83
2023/01/29 00:59:49;;;;;;;54.33;30.95;;;;;;;1.04;65.26;101179.63;5044045;28;20033;-82
2023/01/29 01:04:58;;;;;;;47.03;28.13;;;;;;;1.07;64.59;101183.84;5044740;28;20174;-81
2023/01/29 01:07:23;;;;;;;51.13;28.45;;;;;;;1.04;64.89;101191.25;5043887;28;20139;-83
2023/01/29 01:12:33;;;;;;;50.63;30.00;;;;;;;1.02;65.18;101198.63;5044164;28;20075;-83
2023/01/29 01:14:58;;;;;;;41.05;27.80;;;;;;;1.07;64.78;101203.50;5043789;28;20041;-82
2023/01/29 01:17:23;;;;;;;44.88;28.63;;;;;;;1.06;65.01;101209.06;5043798;28;20029;-83
2023/01/29 01:19:49;;;;;;;52.55;31.23;;;;;;;0.88;65.02;101204.63;5045120;28;20517;-81
2023/01/29 01:22:14;;;;;;;53.72;29.63;;;;;;;0.71;65.36;101207.31;5044765;28;20053;-83
2023/01/29 01:24:40;;;;;;;46.35;28.48;;;;;;;0.57;65.42;101204.22;5044898;28;20047;-81
2023/01/29 01:27:06;;;;;;;50.72;34.63;;;;;;;0.49;65.86;101198.81;5044658;28;20036;-83
2023/01/29 01:29:31;;;;;;;52.08;29.08;;;;;;;0.59;66.25;101193.31;5044159;28;20033;-82
2023/01/29 01:31:57;;;;;;;53.65;29.92;;;;;;;0.44;66.29;101185.91;5044924;28;20036;-81
2023/01/29 01:34:23;;;;;;;53.80;29.48;;;;;;;0.63;66.55;101183.13;5044754;28;20446;-83
2023/01/29 01:36:48;;;;;;;51.97;31.17;;;;;;;0.72;66.16;101174.06;5044876;28;20938;-82
2023/01/29 01:39:13;;;;;;;47.83;27.95;;;;;;;0.74;66.40;101153.25;5043872;28;20489;-82
2023/01/29 01:41:38;;;;;;;50.35;29.65;;;;;;;0.65;65.95;101149.72;5043938;28;20037;-82
2023/01/29 01:44:05;;;;;;;44.35;27.17;;;;;;;0.63;66.11;101126.75;5044432;28;20535;-83
2023/01/29 01:46:34;;;;;;;53.17;30.95;;;;;;;0.72;66.21;101141.00;5044553;28;20410;-82
2023/01/29 01:49:10;;;;;;;47.38;30.65;;;;;;;0.72;65.99;101155.28;5043556;28;20056;-82
2023/01/29 01:51:41;;;;;;;62.53;32.63;;;;;;;0.74;66.34;101144.34;5044615;28;20163;-83
2023/01/29 01:54:11;;;;;;;45.78;29.02;;;;;;;0.81;66.55;101148.06;5044011;28;20028;-82
2023/01/29 01:56:41;;;;;;;58.33;34.75;;;;;;;0.83;66.12;101154.13;5043827;28;20033;-81
2023/01/29 01:59:10;;;;;;;47.35;30.00;;;;;;;0.84;66.09;101152.25;5043785;28;20090;-82
2023/01/29 02:01:41;;;;;;;51.38;28.35;;;;;;;0.84;66.50;101168.38;5044893;28;20033;-82
2023/01/29 02:09:51;;;;;;;48.00;27.75;;;;;;;0.73;66.67;101167.72;5044531;28;20850;-83
2023/01/29 02:12:17;;;;;;;41.80;28.83;;;;;;;0.77;66.61;101166.34;5043924;28;20056;-82
2023/01/29 02:14:43;;;;;;;45.38;29.63;;;;;;;0.75;66.23;101165.69;5043956;28;20053;-82
2023/01/29 02:17:11;;;;;;;52.60;29.50;;;;;;;0.79;66.43;101167.00;5043742;28;20075;-82
2023/01/29 02:19:57;;;;;;;48.42;28.05;;;;;;;0.78;66.38;101165.34;5043571;28;20490;-81
2023/01/29 02:22:53;;;;;;;47.63;29.48;;;;;;;0.73;66.20;101159.66;5025859;28;20049;-83
2023/01/29 02:25:44;;;;;;;51.80;28.40;;;;;;;0.76;66.04;101175.41;5025164;28;20036;-82
2023/01/29 02:28:23;;;;;;;48.15;30.38;;;;;;;0.77;66.15;101173.56;5043136;28;20078;-82
2023/01/29 02:30:51;;;;;;;51.92;30.88;;;;;;;0.71;66.04;101169.72;5043576;28;20063;-82
2023/01/29 02:33:31;;;;;;;55.78;29.83;;;;;;;0.76;66.37;101178.09;5043325;28;20036;-82
2023/01/29 02:36:24;;;;;;;48.88;31.63;;;;;;;0.84;65.87;101185.34;5043466;28;20393;-83
2023/01/29 02:39:15;;;;;;;44.88;27.92;;;;;;;0.68;66.34;101173.56;5043383;28;20040;-82
2023/01/29 02:41:47;;;;;;;56.33;32.47;;;;;;;0.73;66.52;101186.50;5043460;28;20036;-82
2023/01/29 02:44:27;;;;;;;51.90;30.40;;;;;;;0.78;66.44;101176.09;5042960;28;20033;-82
2023/01/29 02:47:15;;;;;;;48.40;29.38;;;;;;;0.76;66.21;101179.94;5044122;28;20045;-82
2023/01/29 02:49:49;;;;;;;54.45;31.80;;;;;;;0.76;66.38;101186.16;5043488;28;20036;-83
2023/01/29 02:52:22;;;;;;;59.58;34.60;;;;;;;0.75;65.86;101191.69;5043076;28;20025;-82
2023/01/29 02:55:03;;;;;;;49.40;29.30;;;;;;;0.68;66.16;101180.75;5042768;28;20103;-82
2023/01/29 02:57:33;;;;;;;47.55;30.83;;;;;;;0.65;66.31;101173.06;5043012;28;20025;-82
2023/01/29 03:00:09;;;;;;;50.42;31.25;;;;;;;0.65;66.37;101181.94;5046216;28;20622;-82
2023/01/29 03:02:46;;;;;;;49.75;31.95;;;;;;;0.68;66.11;101183.44;5047941;28;20163;-83
2023/01/29 03:05:17;;;;;;;48.05;28.08;;;;;;;0.64;66.43;101168.66;5047841;28;20451;-82
2023/01/29 03:07:50;;;;;;;52.38;30.58;;;;;;;0.55;66.62;101182.06;5047165;28;20142;-83
2023/01/29 03:10:32;;;;;;;52.37;30.20;;;;;;;0.65;66.46;101181.94;5047676;28;20051;-83
2023/01/29 03:13:04;;;;;;;44.55;29.95;;;;;;;0.69;66.32;101174.41;5047433;28;20269;-83
2023/01/29 03:15:38;;;;;;;47.00;29.70;;;;;;;0.57;66.25;101182.75;5046963;28;20064;-83
2023/01/29 03:18:11;;;;;;;54.92;31.88;;;;;;;0.65;66.27;101178.41;5046986;28;20044;-82
2023/01/29 03:20:47;;;;;;;51.30;32.03;;;;;;;0.65;66.34;101179.25;5047416;28;20052;-83
2023/01/29 03:23:26;;;;;;;53.05;34.13;;;;;;;0.70;66.61;101178.75;5046863;28;20098;-83
2023/01/29 03:34:33;;;;;;;62.70;33.17;;;;;;;0.58;66.37;101176.38;5046893;28;20043;-82
2023/01/29 03:37:04;;;;;;;55.60;31.63;;;;;;;0.58;67.05;101180.91;5047075;28;20508;-83
2023/01/29 03:39:29;;;;;;;65.95;36.35;;;;;;;0.67;66.64;101179.91;5046054;28;20037;-83
2023/01/29 03:41:59;;;;;;;63.58;35.15;;;;;;;0.65;65.95;101178.41;5046672;28;20056;-82
2023/01/29 03:44:27;;;;;;;49.45;31.88;;;;;;;0.73;66.53;101185.66;5047060;28;20470;-83
2023/01/29 03:47:03;;;;;;;58.47;37.20;;;;;;;0.74;66.39;101173.91;5046657;28;20156;-83
2023/01/29 03:49:44;;;;;;;53.65;32.45;;;;;;;0.73;66.00;101167.72;5046544;28;20057;-82
2023/01/29 03:52:20;;;;;;;65.40;36.70;;;;;;;0.65;66.22;101170.38;5046808;28;20424;-82
2023/01/29 03:55:05;;;;;;;68.55;36.10;;;;;;;0.62;66.46;101159.94;5046789;28;20662;-81
2023/01/29 03:57:34;;;;;;;55.00;34.17;;;;;;;0.59;66.71;101145.00;5046319;28;20103;-83
2023/01/29 04:00:13;;;;;;;53.22;31.98;;;;;;;0.30;67.16;101147.13;5046702;28;20489;-82
2023/01/29 04:02:49;;;;;;;59.85;35.72;;;;;;;0.40;67.37;101146.13;5046526;28;20092;-83
2023/01/29 04:05:19;;;;;;;50.88;31.52;;;;;;;0.52;66.85;101149.34;5046393;28;20032;-82
2023/01/29 04:07:46;;;;;;;61.40;35.10;;;;;;;0.48;67.02;101148.84;5046475;28;20065;-83
2023/01/29 04:10:18;;;;;;;75.05;37.83;;;;;;;0.41;67.18;101142.44;5045817;28;20029;-82
2023/01/29 04:12:49;;;;;;;57.20;34.97;;;;;;;0.34;67.62;101143.13;5045883;28;20044;-82
2023/01/29 04:15:16;;;;;;;53.10;31.58;;;;;;;0.28;68.12;101141.06;5046148;28;20028;-81
2023/01/29 04:17:51;;;;;;;59.88;31.52;;;;;;;0.52;67.97;101143.97;5045723;28;20033;-82
2023/01/29 04:20:17;;;;;;;62.78;33.72;;;;;;;0.69;67.19;101134.13;5046198;28;20053;-83
2023/01/29 04:22:46;;;;;;;61.13;34.22;;;;;;;0.69;66.86;101134.13;5045689;28;20376;-83
2023/01/29 04:25:16;;;;;;;58.78;33.30;;;;;;;0.69;66.91;101134.13;5045956;28;20055;-82
2023/01/29 04:27:56;;;;;;;62.78;36.28;;;;;;;0.80;66.79;101127.59;5045449;28;20033;-83
2023/01/29 04:30:46;;;;;;;53.33;36.17;;;;;;;0.76;67.03;101124.41;5045375;28;20052;-82
2023/01/29 04:33:21;;;;;;;59.35;33.72;;;;;;;0.69;66.27;101120.72;5045495;28;20059;-82
2023/01/29 04:36:24;;;;;;;58.72;33.78;;;;;;;0.63;66.54;101124.06;5046384;28;20087;-81
2023/01/29 04:38:56;;;;;;;58.42;33.42;;;;;;;0.59;67.03;101123.53;5044864;28;20605;-83
2023/01/29 04:41:50;;;;;;;59.38;34.88;;;;;;;0.66;66.77;101108.44;5045367;28;20032;-82
2023/01/29 04:44:30;;;;;;;58.85;35.85;;;;;;;0.52;67.22;101120.66;5045728;28;20055;-83
2023/01/29 04:47:32;;;;;;;50.88;33.03;;;;;;;0.67;67.21;101120.03;5045886;28;20079;-82
2023/01/29 04:50:16;;;;;;;50.95;31.63;;;;;;;0.64;66.89;101120.34;5045474;28;20033;-83
2023/01/29 04:53:09;;;;;;;52.03;35.90;;;;;;;0.78;66.59;101106.28;5045916;28;20033;-83
2023/01/29 04:55:40;;;;;;;50.90;32.72;;;;;;;0.88;66.48;101114.16;5044855;28;20041;-83
2023/01/29 04:58:15;;;;;;;58.25;33.00;;;;;;;0.89;66.60;101115.00;5044966;28;20651;-82
2023/01/29 05:00:43;;;;;;;59.92;35.55;;;;;;;0.82;67.12;101098.72;5044863;28;20120;-83
2023/01/29 05:03:12;;;;;;;65.45;35.08;;;;;;;0.91;66.56;101099.56;5044678;28;20033;-82
2023/01/29 05:05:41;;;;;;;57.05;33.28;;;;;;;0.76;66.82;101113.66;5045317;28;20036;-83
2023/01/29 05:08:08;;;;;;;55.63;32.83;;;;;;;0.75;66.81;101112.00;5044817;28;20072;-82
2023/01/29 05:10:34;;;;;;;56.80;34.20;;;;;;;0.88;67.06;101110.63;5045453;28;20470;-83
2023/01/29 05:13:02;;;;;;;60.63;37.33;;;;;;;0.97;66.55;101100.75;5044941;28;20394;-83
2023/01/29 05:15:35;;;;;;;56.92;32.97;;;;;;;0.85;66.84;101089.50;5045199;28;20033;-83
2023/01/29 05:18:02;;;;;;;57.25;35.13;;;;;;;0.90;67.20;101077.25;5044320;28;20398;-82
2023/01/29 05:20:32;;;;;;;58.60;34.78;;;;;;;0.87;67.14;101082.97;5044273;28;20057;-82
2023/01/29 05:22:57;;;;;;;55.50;34.72;;;;;;;0.87;66.87;101077.59;5043886;28;20163;-82
2023/01/29 05:25:25;;;;;;;55.63;35.17;;;;;;;0.90;67.02;101069.19;5044680;28;20570;-82
2023/01/29 05:28:10;;;;;;;50.38;31.05;;;;;;;0.63;67.37;101071.19;5044678;28;20025;-82
2023/01/29 05:30:38;;;;;;;52.47;32.25;;;;;;;0.76;67.33;101059.09;5045269;28;20060;-82
2023/01/29 05:33:12;;;;;;;61.00;28.50;;;;;;;0.79;67.20;101064.97;5044617;28;20028;-82
2023/01/29 05:35:37;;;;;;;48.53;27.73;;;;;;;0.83;67.06;101064.66;5045023;28;20064;-83
2023/01/29 05:38:02;;;;;;;53.67;32.38;;;;;;;0.93;67.32;101066.19;5044444;28;20107;-82
2023/01/29 05:40:27;;;;;;;49.40;28.55;;;;;;;0.94;66.48;101061.63;5043840;28;20732;-81
2023/01/29 05:42:53;;;;;;;49.50;29.98;;;;;;;0.83;66.88;101064.66;5044777;28;20021;-82
2023/01/29 05:45:19;;;;;;;55.42;31.52;;;;;;;0.77;67.02;101066.19;5044611;28;20029;-82
2023/01/29 05:47:45;;;;;;;49.53;28.05;;;;;;;0.83;66.85;101064.66;5043818;28;20032;-82
2023/01/29 05:50:11;;;;;;;46.55;26.17;;;;;;;0.94;67.25;101067.00;5044056;28;20665;-83
2023/01/29 05:52:37;;;;;;;45.58;26.83;;;;;;;1.03;66.73;101065.16;5044835;28;20029;-81
2023/01/29 05:55:03;;;;;;;41.28;25.42;;;;;;;0.97;66.74;101072.06;5044468;28;20087;-83
2023/01/29 05:57:29;;;;;;;53.08;29.33;;;;;;;1.01;66.90;101068.03;5043589;28;20039;-81
2023/01/29 05:59:54;;;;;;;45.45;25.02;;;;;;;0.80;67.17;101074.72;5044483;28;20041;-83
2023/01/29 06:02:20;;;;;;;42.40;24.70;;;;;;;0.83;67.78;101078.09;5044311;28;20033;-83
2023/01/29 06:04:45;;;;;;;38.70;22.60;;;;;;;0.88;67.45;101083.78;5044068;28;20337;-82
2023/01/29 06:07:10;;;;;;;42.65;23.17;;;;;;;0.91;67.25;101089.69;5044159;28;20398;-82
2023/01/29 06:09:35;;;;;;;43.27;25.20;;;;;;;0.98;67.16;101097.88;5044127;28;20040;-81
2023/01/29 06:12:01;;;;;;;41.93;26.63;;;;;;;0.98;67.53;101089.81;5043554;28;20366;-82
2023/01/29 06:14:26;;;;;;;43.03;26.58;;;;;;;0.91;67.41;101113.00;5044380;28;20277;-82
2023/01/29 06:16:51;;;;;;;39.05;22.38;;;;;;;0.98;67.20;101105.09;5043915;28;20036;-83
2023/01/29 06:19:17;;;;;;;41.53;24.30;;;;;;;0.87;67.23;101109.81;5043456;28;20048;-82
2023/01/29 06:21:42;;;;;;;46.40;25.52;;;;;;;0.94;67.20;101112.66;5043825;28;20053;-83
2023/01/29 06:24:07;;;;;;;46.47;24.30;;;;;;;1.10;67.32;101114.50;5043759;28;20462;-82
2023/01/29 06:26:33;;;;;;;40.70;23.45;;;;;;;1.08;67.19;101121.88;5043121;28;20037;-83
2023/01/29 06:28:58;;;;;;;37.97;22.38;;;;;;;0.94;67.42;101126.09;5025615;28;20028;-83
2023/01/29 06:31:23;;;;;;;39.70;25.27;;;;;;;1.11;67.87;101115.34;5043021;28;20463;-82
2023/01/29 06:33:49;;;;;;;40.08;22.98;;;;;;;1.06;67.18;101113.16;5043364;28;20062;-82
2023/01/29 06:36:14;;;;;;;40.97;24.15;;;;;;;1.11;67.44;101115.34;5043418;28;20483;-83
2023/01/29 06:38:39;;;;;;;38.80;22.17;;;;;;;1.04;67.13;101121.38;5042622;28;20115;-83
2023/01/29 06:41:10;;;;;;;49.30;25.10;;;;;;;0.99;67.12;101107.63;5043535;28;20262;-81
2023/01/29 06:43:35;;;;;;;38.60;22.60;;;;;;;1.13;67.75;101087.31;5042996;28;20028;-81
2023/01/29 06:46:01;;;;;;;45.55;26.63;;;;;;;1.02;67.31;101101.91;5043619;28;20090;-82
2023/01/29 06:48:26;;;;;;;45.27;23.93;;;;;;;1.13;67.70;101108.81;5042705;28;20067;-81
2023/01/29 06:50:53;;;;;;;36.67;21.23;;;;;;;1.14;67.03;101112.34;5042678;28;20300;-82
2023/01/29 06:53:20;;;;;;;40.75;24.05;;;;;;;0.99;67.49;101107.63;5042938;28;20040;-83
2023/01/29 06:55:52;;;;;;;41.05;23.92;;;;;;;1.06;67.51;101112.34;5025303;28;20029;-83
2023/01/29 06:58:17;;;;;;;45.30;24.48;;;;;;;1.15;67.52;101112.16;5042869;28;20037;-83
2023/01/29 07:00:43;;;;;;;38.53;23.52;;;;;;;1.19;68.01;101112.66;5042835;28;20029;-83
2023/01/29 07:03:09;;;;;;;39.00;23.08;;;;;;;1.20;67.56;101117.00;5042992;28;20036;-81
2023/01/29 07:05:34;;;;;;;49.58;26.65;;;;;;;1.16;67.34;101108.47;5042393;28;20044;-82
2023/01/29 07:08:00;;;;;;;40.80;24.27;;;;;;;1.17;67.45;101114.69;5042775;28;20041;-82
2023/01/29 07:10:25;;;;;;;39.10;24.90;;;;;;;1.23;67.74;101114.00;5042721;28;20650;-82
2023/01/29 07:12:50;;;;;;;38.00;21.45;;;;;;;1.21;67.61;101121.41;5043140;28;20498;-82
2023/01/29 07:15:19;;;;;;;47.90;25.47;;;;;;;1.15;67.75;101111.31;5044215;28;20033;-82
2023/01/29 07:17:54;;;;;;;39.25;23.50;;;;;;;1.06;68.09;101115.03;5042626;28;20396;-82
2023/01/29 07:20:20;;;;;;;37.75;25.48;;;;;;;1.07;67.83;101109.47;5024880;28;20103;-82
2023/01/29 07:22:45;;;;;;;42.75;22.20;;;;;;;1.08;68.12;101121.88;5043104;28;20025;-82
2023/01/29 07:25:10;;;;;;;45.00;26.83;;;;;;;1.11;68.28;101126.09;5024941;28;20264;-83
2023/01/29 07:27:35;;;;;;;41.35;26.02;;;;;;;1.11;67.83;101123.41;5042529;28;20049;-83
2023/01/29 07:30:01;;;;;;;42.75;26.52;;;;;;;1.12;67.94;101122.41;5042843;28;20033;-82
2023/01/29 07:32:27;;;;;;;43.40;24.67;;;;;;;1.08;68.58;101107.63;5042757;28;20048;-82
2023/01/29 07:34:52;;;;;;;45.17;24.88;;;;;;;0.87;68.91;101106.28;5024926;28;20265;-82
2023/01/29 07:37:18;;;;;;;45.78;26.70;;;;;;;0.89;68.77;101096.22;5042498;28;20039;-82
2023/01/29 07:39:43;;;;;;;45.23;25.47;;;;;;;1.00;68.66;101098.56;5042797;28;20370;-83
2023/01/29 07:42:08;;;;;;;42.53;26.77;;;;;;;0.98;68.62;101097.88;5042374;28;20293;-82
2023/01/29 07:44:33;;;;;;;42.83;26.15;;;;;;;0.90;68.93;101098.72;5025152;28;20044;-84
2023/01/29 07:46:59;;;;;;;37.38;24.90;;;;;;;0.89;68.71;101090.84;5044847;28;20478;-85
2023/01/29 07:49:24;;;;;;;42.57;25.17;;;;;;;0.82;69.20;101090.66;5046065;28;20084;-84
2023/01/29 07:51:49;;;;;;;49.73;27.93;;;;;;;0.81;69.09;101099.75;5047127;28;20670;-84
2023/01/29 07:54:14;;;;;;;44.53;26.00;;;;;;;0.91;69.57;101096.88;5046240;28;20270;-84
2023/01/29 07:56:40;;;;;;;47.20;27.83;;;;;;;0.92;69.15;101095.88;5045710;28;20297;-83
2023/01/29 07:59:05;;;;;;;40.37;24.43;;;;;;;1.07;69.19;101087.13;5045581;28;20277;-84
2023/01/29 08:01:30;;;;;;;46.65;25.88;;;;;;;1.08;68.89;101095.03;5046149;28;21183;-82
2023/01/29 08:03:55;;;;;;;47.40;27.70;;;;;;;1.08;69.10;101078.91;5046147;28;20043;-81
2023/01/29 08:06:21;;;;;;;43.97;28.40;;;;;;;0.91;68.95;101078.09;5044831;28;20319;-82
2023/01/29 08:08:46;;;;;;;39.58;23.00;;;;;;;0.75;70.03;101090.50;5045722;28;20281;-82
2023/01/29 08:11:11;;;;;;;41.53;24.17;;;;;;;0.87;69.81;101090.19;5046550;28;20204;-81
2023/01/29 08:13:37;;;;;;;50.55;28.95;;;;;;;0.94;69.42;101091.16;5046387;28;20527;-85
2023/01/29 08:16:03;;;;;;;47.88;29.02;;;;;;;1.02;69.30;101079.56;5046286;28;20048;-85
2023/01/29 08:18:30;;;;;;;47.00;27.85;;;;;;;0.98;69.51;101088.97;5045166;28;20029;-81
2023/01/29 08:21:00;;;;;;;54.13;27.25;;;;;;;0.88;69.86;101073.88;5045889;28;20520;-82
2023/01/29 08:23:25;;;;;;;54.47;29.63;;;;;;;0.86;70.13;101077.75;5045947;28;20028;-83
2023/01/29 08:25:51;;;;;;;45.08;28.48;;;;;;;0.81;70.15;101079.06;5045464;28;20036;-83
2023/01/29 08:28:16;;;;;;;45.92;25.38;;;;;;;0.83;70.24;101080.78;5044866;28;20103;-82
2023/01/29 08:30:42;;;;;;;46.38;28.25;;;;;;;0.94;69.88;101088.47;5044696;28;20061;-82
2023/01/29 08:33:08;;;;;;;45.10;27.05;;;;;;;1.14;69.81;101083.59;5045382;28;20072;-83
2023/01/29 08:35:33;;;;;;;47.50;25.38;;;;;;;1.12;69.09;101076.75;5045177;28;20024;-82
2023/01/29 08:38:02;;;;;;;44.67;24.07;;;;;;;1.14;69.19;101072.03;5043665;28;20526;-83
2023/01/29 08:40:30;;;;;;;47.38;28.30;;;;;;;1.14;69.57;101080.09;5045718;28;20878;-83
2023/01/29 08:43:06;;;;;;;41.50;24.13;;;;;;;1.12;69.56;101074.06;5045691;28;20040;-83
2023/01/29 08:45:33;;;;;;;44.95;25.40;;;;;;;0.97;69.99;101077.41;5045471;28;20063;-81
2023/01/29 08:47:58;;;;;;;46.90;27.17;;;;;;;0.92;70.09;101074.38;5045365;28;20560;-83
2023/01/29 08:50:24;;;;;;;40.92;25.65;;;;;;;0.95;70.39;101067.84;5045408;28;20025;-82
2023/01/29 08:52:49;;;;;;;49.42;28.55;;;;;;;0.93;70.15;101070.69;5045639;28;20032;-83
2023/01/29 08:55:14;;;;;;;42.03;25.33;;;;;;;0.99;70.33;101064.66;5044889;28;20033;-83
2023/01/29 08:57:40;;;;;;;49.47;29.58;;;;;;;1.21;69.82;101064.97;5043738;28;20449;-83
2023/01/29 09:00:07;;;;;;;44.80;27.73;;;;;;;1.19;69.36;101058.91;5044444;28;20036;-85
2023/01/29 09:02:32;;;;;;;45.13;27.80;;;;;;;1.18;69.32;101062.59;5044792;28;20281;-83
2023/01/29 09:04:58;;;;;;;48.60;28.52;;;;;;;1.26;68.97;101053.72;5044369;28;20036;-82
2023/01/29 09:07:23;;;;;;;45.53;27.40;;;;;;;1.14;69.56;101055.91;5043904;28;20044;-84
2023/01/29 09:09:48;;;;;;;46.05;29.95;;;;;;;1.07;69.58;101050.38;5043898;28;20262;-84
2023/01/29 09:12:13;;;;;;;45.63;26.38;;;;;;;1.13;69.72;101054.22;5044086;28;20048;-88
2023/01/29 09:14:39;;;;;;;48.97;32.45;;;;;;;1.13;70.04;101046.16;5045025;28;20032;-83
2023/01/29 09:17:04;;;;;;;46.67;28.60;;;;;;;1.30;69.72;101040.78;5045037;28;20033;-84
2023/01/29 09:19:29;;;;;;;42.30;27.48;;;;;;;1.35;69.39;101046.44;5044010;28;20078;-83
2023/01/29 09:21:54;;;;;;;53.53;27.33;;;;;;;1.20;69.86;101046.34;5045157;28;20063;-84
2023/01/29 09:24:20;;;;;;;47.83;29.38;;;;;;;1.23;70.32;101040.59;5045686;28;20052;-83
2023/01/29 09:26:45;;;;;;;49.40;29.53;;;;;;;1.30;70.18;101038.94;5044783;28;20044;-83
2023/01/29 09:29:10;;;;;;;44.70;28.80;;;;;;;1.34;69.65;101034.84;5044762;28;20341;-83
2023/01/29 09:31:35;;;;;;;49.85;28.10;;;;;;;1.35;69.79;101035.72;5044191;28;20102;-83
2023/01/29 09:34:01;;;;;;;52.17;29.57;;;;;;;1.36;70.20;101037.41;5044515;28;20056;-85
2023/01/29 09:36:26;;;;;;;48.60;27.15;;;;;;;1.48;70.11;101024.44;5042613;28;20616;-83
2023/01/29 09:38:51;;;;;;;53.97;27.98;;;;;;;1.45;69.62;101020.22;5043151;28;20033;-82
2023/01/29 09:41:28;;;;;;;46.23;26.67;;;;;;;1.48;70.07;101027.97;5043249;28;20037;-82
2023/01/29 09:44:02;;;;;;;51.92;28.13;;;;;;;1.45;70.03;101022.06;5044436;28;20274;-83
2023/01/29 09:46:37;;;;;;;45.75;29.13;;;;;;;1.56;69.64;101020.88;5044044;28;20032;-83
2023/01/29 09:49:11;;;;;;;39.30;24.83;;;;;;;1.64;70.03;101018.16;5044244;28;20423;-84
2023/01/29 09:51:42;;;;;;;48.67;29.58;;;;;;;1.46;70.15;101021.91;5044151;28;20041;-82
2023/01/29 09:54:46;;;;;;;45.55;26.05;;;;;;;1.33;70.21;101017.06;5044155;28;20065;-83
2023/01/29 09:57:22;;;;;;;56.40;32.90;;;;;;;1.33;71.00;101017.06;5043364;28;20025;-81
2023/01/29 09:59:48;;;;;;;52.97;30.70;;;;;;;1.25;70.76;101019.78;5026020;28;20045;-82
2023/01/29 10:02:51;;;;;;;47.67;27.92;;;;;;;1.25;70.21;101023.31;5044028;28;20111;-83
2023/01/29 10:05:52;;;;;;;47.67;28.30;;;;;;;1.30;70.63;101027.34;5043736;28;20809;-83
2023/01/29 10:08:59;;;;;;;52.95;30.20;;;;;;;1.30;70.56;101027.34;5021545;28;20051;-82
2023/01/29 10:11:27;;;;;;;47.45;29.20;;;;;;;1.33;69.88;101029.66;5033679;28;20045;-83
2023/01/29 10:14:14;;;;;;;51.17;30.27;;;;;;;1.33;69.97;101026.97;5043517;28;20032;-82
2023/01/29 10:16:52;;;;;;;49.45;31.00;;;;;;;1.24;69.67;101032.38;5043565;28;20087;-81
2023/01/29 10:19:43;;;;;;;50.53;29.83;;;;;;;1.38;70.84;101024.63;5042896;28;20709;-81
2023/01/29 10:22:35;;;;;;;44.88;27.70;;;;;;;1.53;70.09;101034.66;5043302;28;20056;-81
2023/01/29 10:25:10;;;;;;;56.40;31.27;;;;;;;1.61;69.84;101027.38;5042043;28;20074;-82
2023/01/29 10:27:48;;;;;;;51.47;27.42;;;;;;;1.63;69.27;101032.59;5042862;28;20179;-86
2023/01/29 10:30:31;;;;;;;43.00;26.23;;;;;;;1.79;69.01;101026.31;5043606;28;20517;-83
2023/01/29 10:33:01;;;;;;;49.75;25.80;;;;;;;1.90;69.54;101027.78;5043155;28;20037;-84
2023/01/29 10:35:38;;;;;;;43.97;26.95;;;;;;;1.72;68.46;101025.34;5043365;28;20032;-85
2023/01/29 10:38:31;;;;;;;46.75;26.17;;;;;;;1.66;69.89;101016.13;5042668;28;20036;-84
2023/01/29 10:41:19;;;;;;;49.45;28.48;;;;;;;1.86;69.60;101002.25;5043317;28;20227;-87
2023/01/29 10:44:03;;;;;;;47.83;27.60;;;;;;;1.65;69.71;100998.28;5043920;28;20490;-86
2023/01/29 10:46:53;;;;;;;53.22;30.23;;;;;;;1.72;69.66;100990.38;5044539;28;20115;-85
2023/01/29 10:49:58;;;;;;;49.88;27.27;;;;;;;1.73;69.32;100983.97;5043393;28;20674;-86
2023/01/29 10:52:48;;;;;;;47.40;28.27;;;;;;;1.71;68.59;100992.22;5044248;28;20029;-85
2023/01/29 10:55:42;;;;;;;45.03;26.15;;;;;;;1.89;69.11;100983.06;5044408;28;20386;-83
2023/01/29 10:58:26;;;;;;;46.15;27.88;;;;;;;2.00;68.70;100976.44;5042780;28;20510;-83
2023/01/29 11:00:51;;;;;;;43.78;27.20;;;;;;;2.11;67.62;100975.19;5043205;28;20166;-83
2023/01/29 11:03:28;;;;;;;39.95;27.23;;;;;;;1.89;67.87;100977.69;5042714;28;20071;-85
2023/01/29 11:06:01;;;;;;;46.03;27.83;;;;;;;1.93;67.83;100973.59;5043243;28;20041;-86
2023/01/29 11:08:33;;;;;;;46.13;27.85;;;;;;;2.04;68.17;100975.06;5042615;28;20667;-86
2023/01/29 11:11:18;;;;;;;44.08;23.77;;;;;;;1.94;67.78;100964.53;5043267;28;20037;-84
2023/01/29 11:13:54;;;;;;;52.15;29.60;;;;;;;2.04;67.99;100958.94;5043141;28;20467;-87
2023/01/29 11:16:19;;;;;;;51.35;27.80;;;;;;;2.16;67.85;100947.72;5043419;28;20040;-84
2023/01/29 11:19:11;;;;;;;44.60;27.02;;;;;;;1.85;68.34;100950.28;5042435;28;20048;-87
2023/01/29 11:21:57;;;;;;;42.55;26.13;;;;;;;2.03;67.68;100954.56;5041646;28;20417;-86
2023/01/29 11:24:22;;;;;;;49.85;29.15;;;;;;;2.22;67.74;100953.25;5047347;28;20032;-87
2023/01/29 11:26:50;;;;;;;56.40;30.60;;;;;;;2.22;67.28;100957.78;5046663;28;20109;-81
2023/01/29 11:29:30;;;;;;;43.80;26.55;;;;;;;2.32;67.21;100965.63;5046572;28;20059;-85
2023/01/29 11:31:58;;;;;;;51.95;25.73;;;;;;;2.27;67.35;100962.63;5046840;28;20032;-87
2023/01/29 11:34:26;;;;;;;42.85;24.23;;;;;;;2.46;68.27;100939.78;5045433;28;20081;-82
2023/01/29 11:36:56;;;;;;;50.30;27.63;;;;;;;2.52;67.02;100944.41;5045677;28;20032;-87
2023/01/29 11:39:23;;;;;;;45.05;24.08;;;;;;;2.53;66.94;100934.50;5046102;28;20037;-88
2023/01/29 11:42:03;;;;;;;52.00;26.35;;;;;;;2.58;67.05;100931.25;5045690;28;20025;-85
2023/01/29 11:44:37;;;;;;;42.83;23.75;;;;;;;2.60;66.50;100918.44;5046769;28;20550;-88
2023/01/29 11:47:16;;;;;;;;;;;;;;;2.47;66.69;100924.44;5047508;28;20033;-88
2023/01/29 11:49:48;;;;;;;44.88;26.83;;;;;;;2.37;66.76;100912.09;5046830;28;19920;-87
2023/01/29 11:52:22;;;;;;;41.33;26.70;;;;;;;2.37;67.25;100913.94;5046822;28;20029;-88
2023/01/29 11:54:53;;;;;;;51.40;29.23;;;;;;;2.33;67.33;100900.00;5047154;28;20033;-86
2023/01/29 11:57:28;;;;;;;41.65;23.38;;;;;;;2.39;66.78;100893.91;5045870;28;20025;-88